Aérodrome :
LOGIN :

S'inscrire | Disclaimer

   EN    FR    IT 

 










Légende :    VFR   VFR Marginal   IFR   IFR Intensif   IFR Très Intensif
Visi : 
Plafond : 
>= 8 km
>= 3000ft
5 à 8 km
1000 à 3000 ft
1500m à 5 km
500 à 1000 ft
800 à 1500m
200 à 500 ft
< 800m
< 200 ft
Symboles :   Orages  Brouillard  Fortes neiges  Fortes précipitations  Vent > 20 kt
SIGMETs :   Divers  Orages  Givrage  Turbulence  Onde Orograph.  Cendres Volcan.







- Altitude de l'aérodrome : 461 ft
- Code IATA : WIE


ETOU - Wiesbaden Army

DERNIER METAR :
  • 261158Z AUTO 32012G21KT 9999 FEW037 SCT048 BKN150 21/12 A2982 RMK AO2 SLP096 T02080122 10209 20157 51005

METARs EXPIRÉS :
  • 261144Z AUTO 34012G17KT 9999 FEW034 SCT048 BKN150 21/13 A2981 RMK AO2 WSHFT 43 SLP093
  • 261058Z AUTO 30010KT 9999 FEW026 BKN043 BKN130 OVC150 19/14 A2982 RMK AO2 SLP097 T01850135
  • 260958Z AUTO 31010G17KT 9999 FEW023 BKN110 BKN150 17/13 A2981 RMK AO2 SLP095 T01730133

TAF TAF ETOU
Valide du 26 à 11h jusqu'au 27 à 17h UTC


261104Z 2611/2717 29012KT 9999 SCT030 BKN100 QNH2975INS
BECMG 2619/2620 25012KT 9999 SCT020 BKN040 QNH2980INS
BECMG 2705/2706 25012G18KT 8000 -SHRA BKN010 QNH2975INS
BECMG 2707/2708 27010G15KT 8000 -SHRA SCT020 BKN070 QNH2973INS TX22/2711Z TN15/2621Z
Pas de NOTAMs connus pour ce terrain.



MET'MAP, la Météo Aéronautique d'un coup d'oeil ! - Copyright ORBIFLY Décembre 2007 - Disclaimer

ORBIFLY MET'MAP TEAM :

Programmation & Développement : Alexandra Zaïnal
Conception & Développement : Baudouin d'Aumeries
Co-Programmation & Développement : Marc-Olivier Méhu
Soutien technique & logistique : Manuel Goepfert

Contact : metmap@orbifly.com




SOURCES & CREDITS :

   NOAA